Time;durP1;ratioP1;P1;durP2;ratioP2;P2;SDS_P1;SDS_P2;PMS_P1;PMS_P2;Temp;Humidity;BMP_temperature;BMP_pressure;BME280_temperature;BME280_humidity;BME280_pressure;Samples;Min_cycle;Max_cycle;Signal;HPM_P1;HPM_P2
2023/07/27 00:00:29;;;;;;;0.10;0.10;;;14.00;99.90;;;;;;5039850;28;20188;-79
2023/07/27 00:02:54;;;;;;;0.10;0.10;;;13.90;99.90;;;;;;5036894;28;20236;-79
2023/07/27 00:05:20;;;;;;;0.10;0.10;;;13.90;99.90;;;;;;5038568;28;20231;-81
2023/07/27 00:07:45;;;;;;;0.10;0.10;;;13.90;99.90;;;;;;5036311;28;20181;-80
2023/07/27 00:10:12;;;;;;;0.10;0.10;;;14.00;99.90;;;;;;5037375;28;20211;-80
2023/07/27 00:12:37;;;;;;;0.10;0.10;;;14.00;99.90;;;;;;5039686;28;20204;-80
2023/07/27 00:15:03;;;;;;;0.10;0.10;;;14.10;99.90;;;;;;5035956;28;20187;-80
2023/07/27 00:17:29;;;;;;;0.10;0.10;;;14.00;99.90;;;;;;5035261;28;20182;-80
2023/07/27 00:19:54;;;;;;;0.10;0.10;;;14.10;99.90;;;;;;5040463;28;20185;-80
2023/07/27 00:22:21;;;;;;;0.10;0.10;;;14.00;99.90;;;;;;5039172;28;20207;-80
2023/07/27 00:24:46;;;;;;;0.10;0.10;;;14.00;99.90;;;;;;5037582;28;20221;-80
2023/07/27 00:27:12;;;;;;;0.10;0.10;;;14.00;99.90;;;;;;5037921;28;20558;-80
2023/07/27 00:29:37;;;;;;;0.10;0.10;;;14.00;99.90;;;;;;5035320;28;20234;-80
2023/07/27 00:32:03;;;;;;;0.10;0.10;;;14.00;99.90;;;;;;5033529;28;20247;-80
2023/07/27 00:34:29;;;;;;;0.10;0.10;;;13.90;99.90;;;;;;5035131;28;20183;-80
2023/07/27 00:36:54;;;;;;;0.10;0.10;;;13.90;99.90;;;;;;5037415;28;20190;-80
2023/07/27 00:39:20;;;;;;;0.10;0.10;;;14.00;99.90;;;;;;5033362;28;20189;-80
2023/07/27 00:41:45;;;;;;;0.10;0.10;;;14.10;99.90;;;;;;5035735;28;20201;-80
2023/07/27 00:44:11;;;;;;;0.10;0.10;;;14.10;99.90;;;;;;5031463;28;20199;-80
2023/07/27 00:46:37;;;;;;;0.00;0.00;;;14.20;99.90;;;;;;5035236;28;20188;-80
2023/07/27 00:49:04;;;;;;;0.10;0.10;;;14.20;99.90;;;;;;5034722;28;20350;-80
2023/07/27 00:51:35;;;;;;;0.10;0.10;;;14.10;99.90;;;;;;5036960;28;21339;-79
2023/07/27 00:54:05;;;;;;;0.10;0.10;;;14.00;99.90;;;;;;5039843;28;20214;-80
2023/07/27 00:56:32;;;;;;;0.07;0.07;;;14.00;99.90;;;;;;5042109;28;21153;-79
2023/07/27 00:59:00;;;;;;;0.10;0.10;;;14.00;99.90;;;;;;5042834;28;20189;-79
2023/07/27 01:01:26;;;;;;;0.10;0.10;;;14.10;99.90;;;;;;5039092;28;20222;-80
2023/07/27 01:03:52;;;;;;;0.10;0.10;;;14.10;99.90;;;;;;5041722;28;20197;-80
2023/07/27 01:06:18;;;;;;;0.10;0.10;;;14.20;99.90;;;;;;5038569;28;20195;-80
2023/07/27 01:08:43;;;;;;;0.10;0.10;;;14.10;99.90;;;;;;5037474;28;20592;-80
2023/07/27 01:11:20;;;;;;;0.10;0.10;;;14.20;99.90;;;;;;5036995;28;20207;-80
2023/07/27 01:14:04;;;;;;;0.10;0.10;;;14.20;99.90;;;;;;5036778;28;20219;-79
2023/07/27 01:16:49;;;;;;;0.10;0.10;;;14.20;99.90;;;;;;5039327;28;20517;-80
2023/07/27 01:19:26;;;;;;;0.10;0.10;;;14.20;99.90;;;;;;5021384;28;20208;-80
2023/07/27 01:22:11;;;;;;;0.10;0.10;;;14.20;99.90;;;;;;5040390;28;20226;-80
2023/07/27 01:24:52;;;;;;;0.10;0.10;;;14.30;99.90;;;;;;5039981;28;20205;-80
2023/07/27 01:27:48;;;;;;;0.10;0.10;;;14.40;99.90;;;;;;5039822;28;20250;-80
2023/07/27 01:30:16;;;;;;;0.10;0.10;;;14.40;99.90;;;;;;5039421;28;20199;-80
2023/07/27 01:32:43;;;;;;;0.10;0.10;;;14.50;99.90;;;;;;5037943;28;20263;-80
2023/07/27 01:35:12;;;;;;;0.10;0.10;;;14.40;99.90;;;;;;5039158;28;20246;-80
2023/07/27 01:37:41;;;;;;;0.10;0.10;;;14.30;99.90;;;;;;5039299;28;20192;-80
2023/07/27 01:40:09;;;;;;;0.10;0.10;;;14.30;99.90;;;;;;5035755;28;20177;-80
2023/07/27 01:42:35;;;;;;;0.10;0.10;;;14.20;99.90;;;;;;5041533;28;20201;-80
2023/07/27 01:45:02;;;;;;;0.10;0.10;;;14.20;99.90;;;;;;5040220;28;20181;-80
2023/07/27 01:47:28;;;;;;;0.10;0.10;;;14.20;99.90;;;;;;5039235;28;20226;-80
2023/07/27 01:49:54;;;;;;;0.10;0.10;;;14.20;99.90;;;;;;5037923;28;20220;-80
2023/07/27 01:52:21;;;;;;;0.10;0.10;;;14.10;99.90;;;;;;5039911;28;20201;-79
2023/07/27 01:54:48;;;;;;;0.10;0.10;;;14.20;99.90;;;;;;5039380;28;20299;-80
2023/07/27 01:57:14;;;;;;;0.10;0.10;;;14.20;99.90;;;;;;5037480;28;20195;-80
2023/07/27 01:59:41;;;;;;;0.10;0.10;;;14.10;99.90;;;;;;5039434;28;20553;-80
2023/07/27 02:02:07;;;;;;;0.10;0.10;;;14.30;99.90;;;;;;5039726;28;20225;-80
2023/07/27 02:04:32;;;;;;;0.10;0.10;;;14.30;99.90;;;;;;5038968;28;20213;-80
2023/07/27 02:06:58;;;;;;;0.10;0.10;;;14.30;99.90;;;;;;5038974;28;20300;-80
2023/07/27 02:09:25;;;;;;;0.10;0.10;;;14.30;99.90;;;;;;5040163;28;20224;-80
2023/07/27 02:11:55;;;;;;;0.10;0.10;;;14.20;99.90;;;;;;5041543;28;20226;-80
2023/07/27 02:14:34;;;;;;;0.10;0.10;;;14.20;99.90;;;;;;5041655;28;20200;-80
2023/07/27 02:17:04;;;;;;;0.10;0.10;;;14.20;99.90;;;;;;5036259;28;20728;-79
2023/07/27 02:19:32;;;;;;;0.10;0.10;;;14.20;99.90;;;;;;5032338;28;20290;-79
2023/07/27 02:22:00;;;;;;;0.10;0.10;;;14.10;99.90;;;;;;5033775;28;20296;-79
2023/07/27 02:24:26;;;;;;;0.10;0.10;;;14.10;99.90;;;;;;5032199;28;20203;-79
2023/07/27 02:26:52;;;;;;;0.10;0.10;;;14.10;99.90;;;;;;5037868;28;20315;-79
2023/07/27 02:29:17;;;;;;;0.10;0.10;;;14.00;99.90;;;;;;5041051;28;20688;-79
2023/07/27 02:31:43;;;;;;;0.10;0.10;;;14.10;99.90;;;;;;5040384;28;20214;-79
2023/07/27 02:34:09;;;;;;;0.10;0.10;;;14.10;99.90;;;;;;5035709;28;20192;-79
2023/07/27 02:36:35;;;;;;;0.10;0.10;;;14.10;99.90;;;;;;5034539;28;20188;-79
2023/07/27 02:39:01;;;;;;;0.10;0.10;;;14.10;99.90;;;;;;5033580;28;20200;-79
2023/07/27 02:41:26;;;;;;;0.10;0.10;;;14.10;99.90;;;;;;5036191;28;20215;-79
2023/07/27 02:43:52;;;;;;;0.00;0.00;;;14.10;99.90;;;;;;5032160;28;20201;-79
2023/07/27 02:46:17;;;;;;;0.10;0.10;;;14.20;99.90;;;;;;5032619;28;20686;-79
2023/07/27 02:48:43;;;;;;;0.10;0.10;;;14.20;99.90;;;;;;5032861;28;20210;-79
2023/07/27 02:51:08;;;;;;;0.10;0.10;;;14.20;99.90;;;;;;5027770;28;20329;-80
2023/07/27 02:53:34;;;;;;;0.10;0.10;;;14.20;99.90;;;;;;5031351;28;20190;-79
2023/07/27 02:56:02;;;;;;;0.10;0.10;;;14.20;99.90;;;;;;5036224;28;20276;-79
2023/07/27 02:58:28;;;;;;;0.10;0.10;;;14.20;99.90;;;;;;5034033;28;20300;-79
2023/07/27 03:01:02;;;;;;;0.10;0.10;;;14.20;99.90;;;;;;5033394;28;20288;-79
2023/07/27 03:03:28;;;;;;;0.10;0.10;;;14.30;99.90;;;;;;5031439;28;20599;-79
2023/07/27 03:06:01;;;;;;;0.10;0.10;;;14.40;99.90;;;;;;5026878;28;20188;-79
2023/07/27 03:08:28;;;;;;;0.10;0.10;;;14.30;99.90;;;;;;5033184;28;20217;-79
2023/07/27 03:10:54;;;;;;;0.10;0.10;;;14.40;99.90;;;;;;5031015;28;20186;-79
2023/07/27 03:13:19;;;;;;;0.10;0.10;;;14.40;99.90;;;;;;5032894;28;20195;-79
2023/07/27 03:15:45;;;;;;;0.10;0.10;;;14.30;99.90;;;;;;5032456;28;20185;-79
2023/07/27 03:18:10;;;;;;;0.10;0.10;;;14.40;99.90;;;;;;5029463;28;20193;-79
2023/07/27 03:20:43;;;;;;;0.10;0.10;;;14.40;99.90;;;;;;5030443;28;20193;-79
2023/07/27 03:23:09;;;;;;;0.10;0.10;;;14.40;99.90;;;;;;5031703;28;20205;-79
2023/07/27 03:25:36;;;;;;;0.10;0.10;;;14.40;99.90;;;;;;5033112;28;20194;-79
2023/07/27 03:28:03;;;;;;;0.10;0.10;;;14.40;99.90;;;;;;5029143;28;20328;-79
2023/07/27 03:30:28;;;;;;;0.10;0.10;;;14.30;99.90;;;;;;5035231;28;20531;-79
2023/07/27 03:32:54;;;;;;;0.10;0.10;;;14.40;99.90;;;;;;5033479;28;20243;-79
2023/07/27 03:35:20;;;;;;;0.10;0.10;;;14.40;99.90;;;;;;5032976;28;20632;-79
2023/07/27 03:37:46;;;;;;;0.10;0.10;;;14.40;99.90;;;;;;5030961;28;20209;-79
2023/07/27 03:40:11;;;;;;;0.10;0.10;;;14.40;99.90;;;;;;5031640;28;20985;-79
2023/07/27 03:42:37;;;;;;;0.10;0.10;;;14.50;99.90;;;;;;5032259;28;20208;-79
2023/07/27 03:45:03;;;;;;;0.10;0.10;;;14.50;99.90;;;;;;5032517;28;20232;-79
2023/07/27 03:47:29;;;;;;;0.10;0.10;;;14.40;99.90;;;;;;5034250;28;20185;-79
2023/07/27 03:49:54;;;;;;;0.10;0.10;;;14.60;99.90;;;;;;5031976;28;20213;-79
2023/07/27 03:52:20;;;;;;;0.10;0.10;;;14.70;99.90;;;;;;5032847;28;20229;-79
2023/07/27 03:54:45;;;;;;;0.10;0.10;;;14.60;99.90;;;;;;5034148;28;20677;-79
2023/07/27 03:57:11;;;;;;;0.10;0.10;;;14.50;99.90;;;;;;5032506;28;20783;-79
2023/07/27 03:59:36;;;;;;;0.10;0.10;;;14.60;99.90;;;;;;5031412;28;20218;-79
2023/07/27 04:02:02;;;;;;;0.10;0.10;;;14.60;99.90;;;;;;5029944;28;20365;-79
2023/07/27 04:04:27;;;;;;;0.10;0.10;;;14.60;99.90;;;;;;5029570;28;20183;-79
2023/07/27 04:06:53;;;;;;;0.10;0.10;;;14.60;99.90;;;;;;5031063;28;20255;-79
2023/07/27 04:09:19;;;;;;;0.10;0.10;;;14.70;99.90;;;;;;5029666;28;20633;-79
2023/07/27 04:11:44;;;;;;;0.10;0.10;;;14.70;99.90;;;;;;5028821;28;20273;-79
2023/07/27 04:14:10;;;;;;;0.10;0.10;;;14.70;99.90;;;;;;5028810;28;20251;-79
2023/07/27 04:16:36;;;;;;;0.10;0.10;;;14.70;99.90;;;;;;5029626;28;20725;-79
2023/07/27 04:19:01;;;;;;;0.10;0.10;;;14.70;99.90;;;;;;5028569;28;20207;-79
2023/07/27 04:21:27;;;;;;;0.10;0.10;;;14.80;99.90;;;;;;5031434;28;20220;-79
2023/07/27 04:23:53;;;;;;;0.10;0.10;;;14.80;99.90;;;;;;5029609;28;20204;-79
2023/07/27 04:26:18;;;;;;;0.10;0.10;;;14.80;99.90;;;;;;5027911;28;20189;-79
2023/07/27 04:28:44;;;;;;;0.10;0.10;;;14.90;99.90;;;;;;5030109;28;20625;-80
2023/07/27 04:31:09;;;;;;;0.10;0.10;;;14.80;99.90;;;;;;5029771;28;20335;-80
2023/07/27 04:33:35;;;;;;;0.10;0.10;;;14.70;99.90;;;;;;5030808;28;20205;-79
2023/07/27 04:36:01;;;;;;;0.10;0.10;;;14.70;99.90;;;;;;5029176;28;20869;-79
2023/07/27 04:38:26;;;;;;;0.10;0.10;;;14.70;99.90;;;;;;5022894;28;20262;-79
2023/07/27 04:40:52;;;;;;;0.10;0.10;;;14.70;99.90;;;;;;5029699;28;20687;-79
2023/07/27 04:43:18;;;;;;;0.10;0.10;;;14.80;99.90;;;;;;5028065;28;21992;-79
2023/07/27 04:45:43;;;;;;;0.10;0.10;;;14.70;99.90;;;;;;5028682;28;20188;-79
2023/07/27 04:48:09;;;;;;;0.10;0.10;;;14.70;99.90;;;;;;5029882;28;20212;-79
2023/07/27 04:50:35;;;;;;;0.10;0.10;;;14.70;99.90;;;;;;5030469;28;20185;-79
2023/07/27 04:53:01;;;;;;;0.10;0.10;;;14.60;99.90;;;;;;5030158;28;20557;-79
2023/07/27 04:55:27;;;;;;;0.10;0.10;;;14.60;99.90;;;;;;5032264;28;20187;-79
2023/07/27 04:57:52;;;;;;;0.10;0.10;;;14.60;99.90;;;;;;5034008;28;20182;-79
2023/07/27 05:00:18;;;;;;;0.10;0.10;;;14.60;99.90;;;;;;5027660;28;20185;-79
2023/07/27 05:02:43;;;;;;;0.10;0.10;;;14.60;99.90;;;;;;5029171;28;20697;-79
2023/07/27 05:05:09;;;;;;;0.10;0.10;;;14.60;99.90;;;;;;5031747;28;20276;-79
2023/07/27 05:07:35;;;;;;;0.10;0.10;;;14.60;99.90;;;;;;5029769;28;20240;-79
2023/07/27 05:10:00;;;;;;;0.30;0.30;;;14.60;99.90;;;;;;5027359;28;20210;-79
2023/07/27 05:12:27;;;;;;;0.10;0.10;;;14.60;99.90;;;;;;5031292;28;20202;-79
2023/07/27 05:14:53;;;;;;;0.10;0.10;;;14.60;99.90;;;;;;5030606;28;20238;-79
2023/07/27 05:17:18;;;;;;;0.10;0.10;;;14.60;99.90;;;;;;5030436;28;20279;-79
2023/07/27 05:19:44;;;;;;;0.10;0.10;;;14.50;99.90;;;;;;5030471;28;20196;-82
2023/07/27 05:22:09;;;;;;;0.10;0.10;;;14.50;99.90;;;;;;5034326;28;20221;-81
2023/07/27 05:24:35;;;;;;;0.10;0.10;;;14.60;99.90;;;;;;5040597;28;20206;-81
2023/07/27 05:27:00;;;;;;;0.10;0.10;;;14.70;99.90;;;;;;5039038;28;20269;-82
2023/07/27 05:29:26;;;;;;;0.10;0.10;;;14.70;99.90;;;;;;5034507;28;20209;-82
2023/07/27 05:31:52;;;;;;;0.10;0.10;;;14.90;99.90;;;;;;5037691;28;20222;-81
2023/07/27 05:34:17;;;;;;;0.10;0.10;;;14.90;99.90;;;;;;5037725;28;20276;-82
2023/07/27 05:36:43;;;;;;;0.10;0.10;;;15.10;99.90;;;;;;5034430;28;20190;-81
2023/07/27 05:39:08;;;;;;;0.10;0.10;;;15.20;99.90;;;;;;5035674;28;20185;-80
2023/07/27 05:41:34;;;;;;;0.10;0.10;;;15.40;99.90;;;;;;5037706;28;20205;-81
2023/07/27 05:43:59;;;;;;;0.10;0.10;;;15.30;99.90;;;;;;5037282;28;20640;-81
2023/07/27 05:46:25;;;;;;;0.10;0.10;;;15.50;99.90;;;;;;5035264;28;20182;-81
2023/07/27 05:48:51;;;;;;;0.10;0.10;;;15.70;99.90;;;;;;5030179;28;20720;-82
2023/07/27 05:51:16;;;;;;;0.10;0.10;;;15.80;99.90;;;;;;5036116;28;20328;-81
2023/07/27 05:53:44;;;;;;;0.10;0.10;;;15.40;99.90;;;;;;5037500;28;20281;-81
2023/07/27 05:56:10;;;;;;;0.10;0.10;;;15.50;99.90;;;;;;5033292;28;20763;-82
2023/07/27 05:58:35;;;;;;;0.10;0.10;;;15.70;99.90;;;;;;5032262;28;20191;-81
2023/07/27 06:01:03;;;;;;;0.10;0.10;;;15.70;99.90;;;;;;5035757;28;20217;-82
2023/07/27 06:03:30;;;;;;;0.10;0.10;;;15.70;99.90;;;;;;5036811;28;20236;-81
2023/07/27 06:05:56;;;;;;;0.10;0.10;;;15.90;99.90;;;;;;5033435;28;20228;-79
2023/07/27 06:08:21;;;;;;;0.10;0.10;;;15.90;99.90;;;;;;5035022;28;20214;-79
2023/07/27 06:10:47;;;;;;;0.10;0.10;;;15.70;99.90;;;;;;5032346;28;20217;-82
2023/07/27 06:13:13;;;;;;;0.10;0.10;;;15.60;99.90;;;;;;5050734;28;20216;-83
2023/07/27 06:15:46;;;;;;;0.10;0.10;;;15.70;99.90;;;;;;5049193;28;20209;-83
2023/07/27 06:18:12;;;;;;;0.10;0.10;;;15.70;99.90;;;;;;5033711;28;20214;-83
2023/07/27 06:20:37;;;;;;;0.10;0.10;;;15.70;99.90;;;;;;5034172;28;20282;-83
2023/07/27 06:23:03;;;;;;;0.10;0.10;;;15.60;99.90;;;;;;5032596;28;20193;-83
2023/07/27 06:25:28;;;;;;;0.10;0.10;;;15.50;99.90;;;;;;5033136;28;20181;-83
2023/07/27 06:27:54;;;;;;;0.10;0.10;;;15.50;99.90;;;;;;5033398;28;20179;-83
2023/07/27 06:30:20;;;;;;;0.10;0.10;;;15.40;99.90;;;;;;5034214;28;20676;-82
2023/07/27 06:32:45;;;;;;;0.10;0.10;;;15.50;99.90;;;;;;5029664;28;20741;-83
2023/07/27 06:35:11;;;;;;;0.10;0.10;;;15.50;99.90;;;;;;5031161;28;20340;-83
2023/07/27 06:37:36;;;;;;;0.10;0.10;;;15.50;99.90;;;;;;5033512;28;20169;-83
2023/07/27 06:40:05;;;;;;;0.10;0.10;;;15.40;99.90;;;;;;5033822;28;20182;-84
2023/07/27 06:42:30;;;;;;;0.10;0.10;;;15.60;99.90;;;;;;5035035;28;20198;-83
2023/07/27 06:44:56;;;;;;;0.63;0.63;;;15.60;99.90;;;;;;5032923;28;20194;-83
2023/07/27 06:47:22;;;;;;;0.10;0.10;;;15.60;99.90;;;;;;5033696;28;20216;-83
2023/07/27 06:49:47;;;;;;;0.10;0.10;;;15.50;99.90;;;;;;5028816;28;20291;-83
2023/07/27 06:52:13;;;;;;;0.10;0.10;;;15.50;99.90;;;;;;5033102;28;20202;-83
2023/07/27 06:54:39;;;;;;;0.10;0.10;;;15.90;99.90;;;;;;5030511;28;20190;-79
2023/07/27 06:57:09;;;;;;;0.10;0.10;;;15.60;99.90;;;;;;5032843;28;20185;-81
2023/07/27 06:59:38;;;;;;;0.10;0.10;;;15.90;99.90;;;;;;5037220;28;20188;-81
2023/07/27 07:02:04;;;;;;;0.10;0.10;;;16.00;99.90;;;;;;5036312;28;20237;-81
2023/07/27 07:04:31;;;;;;;0.10;0.10;;;16.30;99.90;;;;;;5033898;28;20605;-81
2023/07/27 07:06:56;;;;;;;0.10;0.10;;;16.40;99.90;;;;;;5030098;28;20359;-81
2023/07/27 07:09:23;;;;;;;0.10;0.10;;;16.40;99.90;;;;;;5029025;28;20765;-81
2023/07/27 07:11:48;;;;;;;0.10;0.10;;;16.60;99.90;;;;;;5033133;28;20202;-82
2023/07/27 07:14:14;;;;;;;0.10;0.10;;;16.70;99.90;;;;;;5032278;28;20231;-81
2023/07/27 07:16:39;;;;;;;0.10;0.10;;;16.80;99.90;;;;;;5033507;28;20186;-81
2023/07/27 07:19:05;;;;;;;0.10;0.10;;;16.90;99.90;;;;;;5034992;28;20561;-81
2023/07/27 07:21:31;;;;;;;0.10;0.10;;;16.90;99.90;;;;;;5033018;28;20214;-81
2023/07/27 07:23:57;;;;;;;0.10;0.10;;;17.00;99.90;;;;;;5035380;28;20179;-81
2023/07/27 07:26:22;;;;;;;0.10;0.10;;;17.10;99.90;;;;;;5032251;28;20280;-80
2023/07/27 07:28:48;;;;;;;0.10;0.10;;;17.10;99.90;;;;;;5033396;28;20205;-80
2023/07/27 07:31:13;;;;;;;0.10;0.10;;;17.10;99.90;;;;;;5033922;28;20278;-81
2023/07/27 07:33:39;;;;;;;0.10;0.10;;;17.20;99.90;;;;;;5034850;28;20655;-81
2023/07/27 07:36:04;;;;;;;0.10;0.10;;;17.20;99.90;;;;;;5048319;28;20344;-81
2023/07/27 07:38:30;;;;;;;0.10;0.10;;;17.20;99.90;;;;;;5034602;28;20200;-81
2023/07/27 07:40:55;;;;;;;0.10;0.10;;;17.30;99.90;;;;;;5032996;28;20190;-81
2023/07/27 07:43:21;;;;;;;0.10;0.10;;;17.40;99.90;;;;;;5037089;28;20244;-81
2023/07/27 07:45:46;;;;;;;0.10;0.10;;;17.40;99.90;;;;;;5036384;28;20216;-81
2023/07/27 07:48:12;;;;;;;0.10;0.10;;;17.50;99.90;;;;;;5036115;28;20214;-80
2023/07/27 07:50:38;;;;;;;0.10;0.10;;;17.50;99.90;;;;;;5034981;28;20182;-80
2023/07/27 07:53:05;;;;;;;0.10;0.10;;;17.50;99.90;;;;;;5035044;28;20186;-90
2023/07/27 07:55:35;;;;;;;0.10;0.10;;;17.30;99.90;;;;;;5034858;28;20565;-81
2023/07/27 07:58:00;;;;;;;0.10;0.10;;;17.40;99.90;;;;;;5037134;28;20197;-80
2023/07/27 08:00:26;;;;;;;0.10;0.10;;;17.50;99.90;;;;;;5035776;28;20178;-80
2023/07/27 08:02:51;;;;;;;0.10;0.10;;;17.50;99.90;;;;;;5032194;28;20589;-80
2023/07/27 08:05:17;;;;;;;0.10;0.10;;;17.60;99.90;;;;;;5039084;28;20639;-81
2023/07/27 08:07:42;;;;;;;0.10;0.10;;;17.50;99.90;;;;;;5035133;28;20182;-81
2023/07/27 08:10:08;;;;;;;0.10;0.10;;;17.50;99.90;;;;;;5034884;28;20626;-80
2023/07/27 08:12:33;;;;;;;0.10;0.10;;;17.50;99.90;;;;;;5035581;28;20208;-80
2023/07/27 08:15:01;;;;;;;0.10;0.10;;;17.50;99.90;;;;;;5035259;28;20182;-82
2023/07/27 08:17:29;;;;;;;0.10;0.10;;;17.50;99.90;;;;;;5034879;28;20203;-81
2023/07/27 08:19:55;;;;;;;0.10;0.10;;;17.50;99.90;;;;;;5033114;28;20194;-81
2023/07/27 08:22:20;;;;;;;0.10;0.10;;;17.50;99.90;;;;;;5034313;28;20233;-80
2023/07/27 08:24:46;;;;;;;0.10;0.10;;;17.50;99.90;;;;;;5033727;28;20273;-81
2023/07/27 08:27:11;;;;;;;0.10;0.10;;;17.40;99.90;;;;;;5033630;28;20208;-80
2023/07/27 08:29:37;;;;;;;0.10;0.10;;;17.30;99.90;;;;;;5034910;28;20201;-81
2023/07/27 08:32:03;;;;;;;0.10;0.10;;;17.30;99.90;;;;;;5031453;28;20219;-80
2023/07/27 08:34:29;;;;;;;0.10;0.10;;;17.30;99.90;;;;;;5035230;28;20182;-81
2023/07/27 08:36:54;;;;;;;0.10;0.10;;;17.30;99.90;;;;;;5033876;28;20177;-81
2023/07/27 08:39:20;;;;;;;0.10;0.10;;;17.30;99.90;;;;;;5031475;28;20197;-81
2023/07/27 08:41:46;;;;;;;0.10;0.10;;;17.30;99.90;;;;;;5034389;28;20201;-81
2023/07/27 08:44:13;;;;;;;0.10;0.10;;;17.30;99.90;;;;;;5032946;28;20194;-81
2023/07/27 08:46:43;;;;;;;0.10;0.10;;;17.30;99.90;;;;;;5034214;28;20190;-81
2023/07/27 08:49:12;;;;;;;0.10;0.10;;;17.40;99.90;;;;;;5033960;28;20218;-81
2023/07/27 08:51:39;;;;;;;0.10;0.10;;;17.40;99.90;;;;;;5033783;28;20582;-82
2023/07/27 08:54:05;;;;;;;0.10;0.10;;;17.40;99.90;;;;;;5033406;28;20185;-81
2023/07/27 08:56:31;;;;;;;0.10;0.10;;;17.40;99.90;;;;;;5030691;28;20186;-81
2023/07/27 08:58:57;;;;;;;0.10;0.10;;;17.40;99.90;;;;;;5031428;28;20225;-79
2023/07/27 09:01:23;;;;;;;0.10;0.10;;;17.40;99.90;;;;;;5029413;28;20262;-79
2023/07/27 09:03:48;;;;;;;0.10;0.10;;;17.30;99.90;;;;;;5031349;28;20651;-79
2023/07/27 09:06:14;;;;;;;0.10;0.10;;;17.30;99.90;;;;;;5037734;28;20225;-83
2023/07/27 09:08:39;;;;;;;0.10;0.10;;;17.40;99.90;;;;;;5033398;28;20213;-84
2023/07/27 09:11:08;;;;;;;0.10;0.10;;;17.50;99.90;;;;;;5032516;28;20289;-84
2023/07/27 09:13:35;;;;;;;0.10;0.10;;;17.40;99.90;;;;;;5035115;28;20179;-81
2023/07/27 09:16:02;;;;;;;0.10;0.10;;;17.50;99.90;;;;;;5030605;28;20190;-79
2023/07/27 09:18:32;;;;;;;0.10;0.10;;;17.40;99.90;;;;;;5031891;28;20182;-79
2023/07/27 09:20:58;;;;;;;0.10;0.10;;;17.60;99.90;;;;;;5034956;28;20220;-79
2023/07/27 09:23:24;;;;;;;0.10;0.10;;;17.60;99.90;;;;;;5035897;28;20189;-80
2023/07/27 09:25:53;;;;;;;0.10;0.10;;;17.60;99.90;;;;;;5035244;28;20196;-79
2023/07/27 09:28:27;;;;;;;0.10;0.10;;;17.70;99.90;;;;;;5032100;28;20214;-79
2023/07/27 09:31:01;;;;;;;0.10;0.10;;;17.70;99.90;;;;;;5031183;28;20193;-80
2023/07/27 09:33:26;;;;;;;0.10;0.10;;;17.80;99.90;;;;;;5034633;28;20190;-79
2023/07/27 09:35:53;;;;;;;0.10;0.10;;;17.80;99.90;;;;;;5035532;28;20375;-80
2023/07/27 09:38:27;;;;;;;0.10;0.10;;;17.70;99.90;;;;;;5030558;28;20240;-79
2023/07/27 09:40:53;;;;;;;0.10;0.10;;;17.90;99.90;;;;;;5032351;28;20194;-80
2023/07/27 09:43:22;;;;;;;0.10;0.10;;;18.00;99.90;;;;;;5034910;28;20186;-79
2023/07/27 09:45:47;;;;;;;0.10;0.10;;;18.00;99.90;;;;;;5034665;28;20182;-79
2023/07/27 09:48:14;;;;;;;0.10;0.10;;;18.10;99.90;;;;;;5031620;28;20197;-79
2023/07/27 09:50:42;;;;;;;0.10;0.10;;;18.10;99.90;;;;;;5033697;28;20209;-79
2023/07/27 09:53:11;;;;;;;0.10;0.10;;;18.20;99.90;;;;;;5028926;28;20194;-79
2023/07/27 09:55:37;;;;;;;0.10;0.10;;;18.20;99.90;;;;;;5032298;28;20190;-79
2023/07/27 09:58:04;;;;;;;0.10;0.10;;;18.30;99.90;;;;;;5033570;28;20863;-80
2023/07/27 10:00:30;;;;;;;0.10;0.10;;;18.30;99.90;;;;;;5034093;28;20259;-79
2023/07/27 10:02:55;;;;;;;0.10;0.10;;;18.30;99.90;;;;;;5034855;28;20686;-79
2023/07/27 10:05:22;;;;;;;0.10;0.10;;;18.40;99.90;;;;;;5034313;28;20198;-79
2023/07/27 10:07:48;;;;;;;0.10;0.10;;;18.40;99.90;;;;;;5027695;28;20176;-80
2023/07/27 10:10:31;;;;;;;0.10;0.10;;;18.40;99.90;;;;;;5030709;28;20825;-80
2023/07/27 10:13:03;;;;;;;0.10;0.10;;;18.40;99.90;;;;;;5033927;28;20235;-79
2023/07/27 10:15:29;;;;;;;0.10;0.10;;;18.50;99.90;;;;;;5031686;28;20186;-80
2023/07/27 10:17:59;;;;;;;0.10;0.10;;;18.50;99.90;;;;;;5032670;28;20184;-79
2023/07/27 10:20:33;;;;;;;0.10;0.10;;;18.50;99.90;;;;;;5035103;28;20604;-79
2023/07/27 10:23:17;;;;;;;0.10;0.10;;;18.50;99.90;;;;;;5031435;28;20222;-79
2023/07/27 10:25:54;;;;;;;0.10;0.10;;;18.50;99.90;;;;;;5030748;28;20212;-80
2023/07/27 10:28:41;;;;;;;0.10;0.10;;;18.50;99.90;;;;;;5033149;28;20716;-79
2023/07/27 10:31:27;;;;;;;0.10;0.10;;;18.50;99.90;;;;;;5031145;28;20594;-80
2023/07/27 10:33:54;;;;;;;0.10;0.10;;;18.50;99.90;;;;;;5033124;28;20233;-79
2023/07/27 10:36:20;;;;;;;0.10;0.10;;;18.50;99.90;;;;;;5034261;28;20714;-79
2023/07/27 10:38:53;;;;;;;0.10;0.10;;;18.30;99.90;;;;;;5032150;28;20181;-79
2023/07/27 10:41:24;;;;;;;0.10;0.10;;;18.30;99.90;;;;;;5031417;28;20229;-79
2023/07/27 10:44:08;;;;;;;0.10;0.10;;;18.30;99.90;;;;;;5029540;28;20542;-80
2023/07/27 10:46:38;;;;;;;0.10;0.10;;;18.30;99.90;;;;;;5030063;28;21264;-79
2023/07/27 10:49:09;;;;;;;0.10;0.10;;;18.20;99.90;;;;;;5030571;28;20224;-79
2023/07/27 10:51:34;;;;;;;0.10;0.10;;;18.20;99.90;;;;;;5031741;28;20288;-79
2023/07/27 10:54:00;;;;;;;0.10;0.10;;;18.30;99.90;;;;;;5032022;28;20320;-79
2023/07/27 10:56:26;;;;;;;0.10;0.10;;;18.30;99.90;;;;;;5032801;28;20193;-80
2023/07/27 10:58:59;;;;;;;0.10;0.10;;;18.30;99.90;;;;;;5031989;28;20201;-79
2023/07/27 11:01:25;;;;;;;0.10;0.10;;;18.20;99.90;;;;;;5032520;28;20288;-79
2023/07/27 11:03:51;;;;;;;0.10;0.10;;;18.30;99.90;;;;;;5031237;28;20186;-80
2023/07/27 11:06:17;;;;;;;0.10;0.10;;;18.20;99.90;;;;;;5032021;28;20654;-79
2023/07/27 11:08:43;;;;;;;0.10;0.10;;;18.10;99.90;;;;;;5032233;28;20629;-81
2023/07/27 11:11:19;;;;;;;0.10;0.10;;;18.20;99.90;;;;;;5030576;28;20205;-80
2023/07/27 11:13:45;;;;;;;0.10;0.10;;;18.30;99.90;;;;;;5024267;28;20180;-80
2023/07/27 11:16:13;;;;;;;0.10;0.10;;;18.30;99.90;;;;;;5030758;28;21679;-79
2023/07/27 11:18:40;;;;;;;0.10;0.10;;;18.40;99.90;;;;;;5035842;28;20263;-80
2023/07/27 11:21:08;;;;;;;0.10;0.10;;;18.50;99.90;;;;;;5031527;28;20211;-80
2023/07/27 11:23:40;;;;;;;0.10;0.10;;;18.50;99.90;;;;;;5030770;28;20209;-80
2023/07/27 11:26:06;;;;;;;0.10;0.10;;;18.70;99.90;;;;;;5030304;28;20185;-79
2023/07/27 11:28:32;;;;;;;0.10;0.10;;;18.80;99.90;;;;;;5032504;28;21306;-79
2023/07/27 11:30:58;;;;;;;0.10;0.10;;;18.80;99.90;;;;;;5027853;28;20182;-79
2023/07/27 11:33:31;;;;;;;0.10;0.10;;;18.90;99.90;;;;;;5031523;28;21100;-79
2023/07/27 11:35:57;;;;;;;0.10;0.10;;;19.00;99.90;;;;;;5032753;28;20230;-79
2023/07/27 11:38:22;;;;;;;0.10;0.10;;;18.90;99.90;;;;;;5029916;28;20190;-80
2023/07/27 11:40:48;;;;;;;0.10;0.10;;;19.00;99.90;;;;;;5029230;28;20182;-79
2023/07/27 11:43:14;;;;;;;0.10;0.10;;;19.00;99.90;;;;;;5031006;28;20223;-79
2023/07/27 11:45:40;;;;;;;0.10;0.10;;;18.90;99.90;;;;;;5030176;28;21008;-80
2023/07/27 11:48:06;;;;;;;0.10;0.10;;;19.00;99.90;;;;;;5034378;28;20196;-80
2023/07/27 11:50:36;;;;;;;0.10;0.10;;;18.90;99.90;;;;;;5033974;28;20235;-80
2023/07/27 11:53:03;;;;;;;0.10;0.10;;;18.90;99.90;;;;;;5035306;28;20210;-80
2023/07/27 11:55:34;;;;;;;0.10;0.10;;;18.80;99.90;;;;;;5033307;28;20198;-79
2023/07/27 11:57:59;;;;;;;0.10;0.10;;;18.90;99.90;;;;;;5033877;28;20213;-80
2023/07/27 12:00:25;;;;;;;0.10;0.10;;;18.80;99.90;;;;;;5032421;28;20225;-79
2023/07/27 12:02:51;;;;;;;0.10;0.10;;;18.80;99.90;;;;;;5037557;28;20223;-79
2023/07/27 12:05:22;;;;;;;0.10;0.10;;;18.80;99.90;;;;;;5020037;28;20243;-80
2023/07/27 12:07:52;;;;;;;0.10;0.10;;;18.80;99.90;;;;;;5033727;28;20292;-80
2023/07/27 12:10:19;;;;;;;0.10;0.10;;;18.80;99.90;;;;;;5032698;28;20216;-80
2023/07/27 12:12:47;;;;;;;0.10;0.10;;;18.80;99.90;;;;;;5031208;28;20199;-79
2023/07/27 12:15:29;;;;;;;0.10;0.10;;;18.80;99.90;;;;;;5034884;28;21528;-80
2023/07/27 12:17:56;;;;;;;0.10;0.10;;;18.90;99.90;;;;;;5027101;28;20187;-79
2023/07/27 12:20:22;;;;;;;0.10;0.10;;;19.10;99.90;;;;;;5033228;28;20197;-79
2023/07/27 12:22:48;;;;;;;0.10;0.10;;;19.20;99.90;;;;;;5034135;28;20217;-80
2023/07/27 12:25:13;;;;;;;0.10;0.10;;;19.10;99.90;;;;;;5031473;28;20280;-80
2023/07/27 12:27:39;;;;;;;0.10;0.10;;;19.20;99.90;;;;;;5028907;28;20224;-80
2023/07/27 12:30:05;;;;;;;0.10;0.10;;;19.20;99.90;;;;;;5029372;28;20695;-80
2023/07/27 12:32:30;;;;;;;0.10;0.10;;;19.10;99.90;;;;;;5034716;28;20220;-80
2023/07/27 12:34:56;;;;;;;0.10;0.10;;;19.10;99.90;;;;;;5032213;28;20188;-80
2023/07/27 12:37:21;;;;;;;0.10;0.10;;;19.20;99.90;;;;;;5032840;28;20277;-81
2023/07/27 12:39:48;;;;;;;0.10;0.10;;;19.20;99.90;;;;;;5032659;28;20605;-80
2023/07/27 12:42:14;;;;;;;0.10;0.10;;;19.20;99.90;;;;;;5031991;28;20695;-85
2023/07/27 12:44:40;;;;;;;0.10;0.10;;;19.10;99.90;;;;;;5046668;28;20220;-80
2023/07/27 12:47:06;;;;;;;0.10;0.10;;;19.20;99.90;;;;;;5034549;28;20228;-80